Time;durP1;ratioP1;P1;durP2;ratioP2;P2;SDS_P1;SDS_P2;PMS_P1;PMS_P2;Temp;Humidity;BMP_temperature;BMP_pressure;BME280_temperature;BME280_humidity;BME280_pressure;Samples;Min_cycle;Max_cycle;Signal;HPM_P1;HPM_P2
2022/01/24 00:00:13;;;;;;;38.63;15.15;;;5.10;99.90;;;;;;5048581;28;20086;-72
2022/01/24 00:02:41;;;;;;;40.67;15.57;;;5.10;99.90;;;;;;5065233;28;20040;-72
2022/01/24 00:05:07;;;;;;;38.65;14.38;;;5.10;99.90;;;;;;5063909;28;20110;-72
2022/01/24 00:07:32;;;;;;;40.22;15.32;;;5.10;99.90;;;;;;5064865;28;20045;-73
2022/01/24 00:10:02;;;;;;;45.17;16.15;;;5.10;99.90;;;;;;5064784;28;20079;-73
2022/01/24 00:12:40;;;;;;;51.83;18.50;;;5.10;99.90;;;;;;5051280;28;20029;-73
2022/01/24 00:15:50;;;;;;;48.63;18.27;;;5.10;99.90;;;;;;5067417;28;20108;-73
2022/01/24 00:18:14;;;;;;;45.63;17.27;;;5.10;99.90;;;;;;5065710;28;20483;-73
2022/01/24 00:28:52;;;;;;;52.72;19.20;;;5.10;99.90;;;;;;5087627;28;20051;-73
2022/01/24 00:31:18;;;;;;;49.95;18.15;;;5.10;99.90;;;;;;5067204;28;20040;-73
2022/01/24 00:33:43;;;;;;;55.10;20.17;;;5.10;99.90;;;;;;5073326;28;20451;-73
2022/01/24 00:36:09;;;;;;;60.22;21.65;;;5.10;99.90;;;;;;5080255;28;20502;-73
2022/01/24 00:38:34;;;;;;;63.10;20.55;;;5.10;99.90;;;;;;5079052;28;20036;-72
2022/01/24 00:41:00;;;;;;;63.75;21.63;;;5.10;99.90;;;;;;5066302;28;20040;-73
2022/01/24 00:43:50;;;;;;;61.45;21.52;;;5.10;99.90;;;;;;5085726;28;20058;-73
2022/01/24 00:46:30;;;;;;;62.13;20.98;;;5.00;99.90;;;;;;5068180;28;20058;-72
2022/01/24 00:56:52;;;;;;;71.22;22.48;;;5.10;99.90;;;;;;5063541;28;20466;-72
2022/01/24 00:59:17;;;;;;;60.10;20.98;;;5.10;99.90;;;;;;5061332;28;20037;-73
2022/01/24 01:01:43;;;;;;;66.88;21.48;;;5.10;99.90;;;;;;5064852;28;20514;-72
2022/01/24 01:04:08;;;;;;;67.65;22.08;;;5.10;99.90;;;;;;5061459;28;20052;-72
2022/01/24 01:06:34;;;;;;;65.40;21.98;;;5.10;99.90;;;;;;5054958;28;20068;-72
2022/01/24 01:19:56;;;;;;;74.03;23.85;;;5.00;99.90;;;;;;5071840;28;20060;-73
2022/01/24 01:22:22;;;;;;;74.78;24.08;;;5.00;99.90;;;;;;5080970;28;20036;-73
2022/01/24 01:24:52;;;;;;;76.13;24.70;;;5.00;99.90;;;;;;5079143;28;20036;-72
2022/01/24 01:27:24;;;;;;;76.28;24.48;;;5.00;99.90;;;;;;5084424;28;20054;-72
2022/01/24 01:30:15;;;;;;;77.88;24.85;;;5.00;99.90;;;;;;5071468;28;20046;-73
2022/01/24 01:32:51;;;;;;;78.65;25.95;;;5.00;99.90;;;;;;5052282;28;20033;-73
2022/01/24 01:35:41;;;;;;;76.88;24.70;;;5.00;99.90;;;;;;5071925;28;20483;-73
2022/01/24 01:54:32;;;;;;;78.65;23.95;;;5.00;99.90;;;;;;5104481;28;20056;-72
2022/01/24 01:56:58;;;;;;;77.85;25.27;;;5.00;99.90;;;;;;5090952;28;20498;-73
2022/01/24 01:59:23;;;;;;;80.43;24.35;;;5.00;99.90;;;;;;5071234;28;20037;-73
2022/01/24 02:01:49;;;;;;;76.15;25.42;;;4.90;99.90;;;;;;5049229;28;20414;-73
2022/01/24 02:04:15;;;;;;;78.65;25.20;;;4.90;99.90;;;;;;5055017;28;20045;-72
2022/01/24 02:06:41;;;;;;;76.78;24.27;;;4.90;99.90;;;;;;5056661;28;20052;-72
2022/01/24 02:09:11;;;;;;;78.97;25.00;;;4.90;99.90;;;;;;5067265;28;20037;-73
2022/01/24 02:11:37;;;;;;;75.00;24.27;;;4.90;99.90;;;;;;5070908;28;20041;-73
2022/01/24 02:14:07;;;;;;;71.80;24.80;;;4.90;99.90;;;;;;5075077;28;20475;-73
2022/01/24 02:19:12;;;;;;;76.88;24.13;;;4.90;99.90;;;;;;5073688;28;20486;-73
2022/01/24 02:21:45;;;;;;;72.05;23.50;;;4.90;99.90;;;;;;5058867;28;20083;-73
2022/01/24 02:24:14;;;;;;;67.20;23.38;;;4.90;99.90;;;;;;5060398;28;20041;-73
2022/01/24 02:26:40;;;;;;;73.47;24.40;;;4.90;99.90;;;;;;5058190;28;20040;-73
2022/01/24 02:29:14;;;;;;;70.00;24.17;;;4.90;99.90;;;;;;5076840;28;20514;-73
2022/01/24 02:31:49;;;;;;;70.13;23.60;;;4.90;99.90;;;;;;5067068;28;20120;-73
2022/01/24 02:34:21;;;;;;;72.97;23.27;;;4.90;99.90;;;;;;5052354;28;20045;-73
2022/01/24 02:36:46;;;;;;;65.53;21.55;;;4.90;99.90;;;;;;5058907;28;20039;-73
2022/01/24 02:39:44;;;;;;;69.10;22.17;;;4.90;99.90;;;;;;5064185;28;20126;-72
2022/01/24 02:52:58;;;;;;;56.03;19.60;;;4.80;99.90;;;;;;5069821;28;20044;-73
2022/01/24 02:55:24;;;;;;;55.00;18.35;;;4.90;99.90;;;;;;5050608;28;20048;-73
2022/01/24 02:57:49;;;;;;;52.95;18.60;;;4.80;99.90;;;;;;5068574;28;20039;-73
2022/01/24 03:00:15;;;;;;;51.75;19.08;;;4.80;99.90;;;;;;5041886;28;20039;-73
2022/01/24 03:02:41;;;;;;;51.83;18.40;;;4.80;99.90;;;;;;5060244;28;20049;-73
2022/01/24 03:05:07;;;;;;;49.33;18.05;;;4.80;99.90;;;;;;5054386;28;20060;-73
2022/01/24 03:07:32;;;;;;;51.83;18.45;;;4.80;99.90;;;;;;5084298;28;20048;-73
2022/01/24 03:10:01;;;;;;;51.83;18.30;;;4.90;99.90;;;;;;5083661;28;20051;-73
2022/01/24 03:12:40;;;;;;;50.45;18.02;;;4.80;99.90;;;;;;5056374;28;20397;-73
2022/01/24 03:15:07;;;;;;;46.95;17.20;;;4.90;99.90;;;;;;5076287;28;20037;-73
2022/01/24 03:17:32;;;;;;;49.88;16.92;;;4.80;99.90;;;;;;5070482;28;20055;-73
2022/01/24 03:19:58;;;;;;;48.90;16.83;;;4.90;99.90;;;;;;5069433;28;20410;-73
2022/01/24 03:22:23;;;;;;;46.38;17.13;;;4.80;99.90;;;;;;5058988;28;20487;-72
2022/01/24 03:24:49;;;;;;;55.08;18.65;;;4.90;99.90;;;;;;5057158;28;20033;-72
2022/01/24 03:27:15;;;;;;;50.92;17.70;;;4.90;99.90;;;;;;5089107;28;20066;-72
2022/01/24 03:29:41;;;;;;;45.13;16.38;;;4.90;99.90;;;;;;5060359;28;20398;-73
2022/01/24 03:32:07;;;;;;;48.20;17.65;;;4.80;99.90;;;;;;5073648;28;20036;-72
2022/01/24 03:34:32;;;;;;;42.60;16.25;;;4.80;99.90;;;;;;5076894;28;20047;-73
2022/01/24 03:36:58;;;;;;;48.60;17.58;;;4.80;99.90;;;;;;5080146;28;20048;-72
2022/01/24 03:39:23;;;;;;;46.50;18.38;;;4.90;99.90;;;;;;5055197;28;20040;-72
2022/01/24 03:41:49;;;;;;;51.78;19.20;;;4.80;99.90;;;;;;5056379;28;20045;-72
2022/01/24 03:44:17;;;;;;;57.50;21.33;;;4.80;99.90;;;;;;5052342;28;20058;-71
2022/01/24 03:49:45;;;;;;;76.75;24.00;;;4.90;99.90;;;;;;5059674;28;20187;-72
2022/01/24 03:52:12;;;;;;;65.50;23.00;;;4.90;99.90;;;;;;5083077;28;20040;-72
2022/01/24 03:54:38;;;;;;;74.35;23.85;;;4.90;99.90;;;;;;5081378;28;20202;-72
2022/01/24 03:57:04;;;;;;;72.68;23.15;;;5.00;99.90;;;;;;5076783;28;20416;-72
2022/01/24 03:59:30;;;;;;;69.10;22.30;;;5.00;99.90;;;;;;5087513;28;20046;-72
2022/01/24 04:01:58;;;;;;;70.38;22.85;;;5.00;99.90;;;;;;5075945;28;20044;-72
2022/01/24 04:04:24;;;;;;;67.25;21.77;;;5.00;99.90;;;;;;5067520;28;20045;-72
2022/01/24 04:06:50;;;;;;;65.95;22.00;;;4.90;99.90;;;;;;5075633;28;20048;-72
2022/01/24 04:09:15;;;;;;;72.38;22.75;;;4.90;99.90;;;;;;5066877;28;20037;-72
2022/01/24 04:11:41;;;;;;;64.95;21.40;;;4.90;99.90;;;;;;5049419;28;20527;-72
2022/01/24 04:14:28;;;;;;;70.15;22.15;;;4.90;99.90;;;;;;5050805;28;20445;-72
2022/01/24 04:17:08;;;;;;;67.10;22.23;;;4.90;99.90;;;;;;5048848;28;20384;-72
2022/01/24 04:22:15;;;;;;;59.50;20.23;;;4.90;99.90;;;;;;5063650;28;20045;-72
2022/01/24 04:24:42;;;;;;;66.55;22.70;;;4.90;99.90;;;;;;5073382;28;20398;-72
2022/01/24 04:27:09;;;;;;;60.25;20.42;;;4.90;99.90;;;;;;5077627;28;20052;-72
2022/01/24 04:29:35;;;;;;;68.03;22.05;;;4.90;99.90;;;;;;5086070;28;20036;-72
2022/01/24 04:32:01;;;;;;;68.78;21.58;;;4.90;99.90;;;;;;5066904;28;20094;-72
2022/01/24 04:34:27;;;;;;;69.43;22.00;;;4.90;99.90;;;;;;5072231;28;20047;-72
2022/01/24 04:36:52;;;;;;;62.00;21.13;;;4.90;99.90;;;;;;5073761;28;20032;-72
2022/01/24 04:39:19;;;;;;;63.72;21.30;;;4.90;99.90;;;;;;5055461;28;20044;-72
2022/01/24 04:41:48;;;;;;;68.55;23.17;;;4.90;99.90;;;;;;5085423;28;20290;-72
2022/01/24 04:47:19;;;;;;;73.22;22.17;;;4.90;99.90;;;;;;5086836;28;20052;-72
2022/01/24 04:50:37;;;;;;;64.10;22.85;;;4.80;99.90;;;;;;5070117;28;20048;-72
2022/01/24 04:52:52;;;;;;;67.30;22.15;;;4.80;99.90;;;;;;5087733;28;20136;-72
2022/01/24 04:55:18;;;;;;;68.63;22.27;;;4.90;99.90;;;;;;5063892;28;20071;-72
2022/01/24 04:57:46;;;;;;;65.82;21.63;;;4.80;99.90;;;;;;5057220;28;20084;-72
2022/01/24 05:00:12;;;;;;;65.53;21.88;;;4.80;99.90;;;;;;5035804;28;20040;-72
2022/01/24 05:02:38;;;;;;;65.13;23.08;;;4.80;99.90;;;;;;5052697;28;20041;-72
2022/01/24 05:05:05;;;;;;;71.40;22.90;;;4.80;99.90;;;;;;5053703;28;20116;-72
2022/01/24 05:07:30;;;;;;;70.47;22.05;;;4.80;99.90;;;;;;5066031;28;20194;-72
2022/01/24 05:23:30;;;;;;;54.88;18.73;;;4.80;99.90;;;;;;5082707;28;20078;-72
2022/01/24 05:25:58;;;;;;;54.88;18.92;;;4.80;99.90;;;;;;5086274;28;20036;-72
2022/01/24 05:28:25;;;;;;;60.10;19.60;;;4.80;99.90;;;;;;5040035;28;20128;-72
2022/01/24 05:30:51;;;;;;;56.75;18.80;;;4.80;99.90;;;;;;5069354;28;20041;-72
2022/01/24 05:33:17;;;;;;;57.45;19.15;;;4.80;99.90;;;;;;5070759;28;20047;-72
2022/01/24 05:35:42;;;;;;;62.63;20.73;;;4.80;99.90;;;;;;5061067;28;20086;-72
2022/01/24 05:38:10;;;;;;;60.45;20.40;;;4.70;99.90;;;;;;5052571;28;20064;-72
2022/01/24 05:40:36;;;;;;;59.40;20.58;;;4.70;99.90;;;;;;5053157;28;20044;-72
2022/01/24 05:43:02;;;;;;;58.05;20.23;;;4.70;99.90;;;;;;5071217;28;20093;-72
2022/01/24 05:45:27;;;;;;;74.97;23.08;;;4.70;99.90;;;;;;5083747;28;20048;-72
2022/01/24 05:47:53;;;;;;;68.13;22.45;;;4.70;99.90;;;;;;5070643;28;20232;-72
2022/01/24 05:50:19;;;;;;;64.70;21.85;;;4.70;99.90;;;;;;5076761;28;20399;-72
2022/01/24 05:52:44;;;;;;;74.45;23.50;;;4.70;99.90;;;;;;5087430;28;20124;-72
2022/01/24 05:55:10;;;;;;;69.28;22.83;;;4.80;99.90;;;;;;5066722;28;20037;-72
2022/01/24 05:57:36;;;;;;;69.70;23.23;;;4.70;99.90;;;;;;5067196;28;20037;-72
2022/01/24 06:00:04;;;;;;;70.18;23.38;;;4.70;99.90;;;;;;5056039;28;20494;-72
2022/01/24 06:02:30;;;;;;;76.00;24.88;;;4.70;99.90;;;;;;5083182;28;20131;-66
2022/01/24 06:04:55;;;;;;;74.78;23.67;;;4.70;99.90;;;;;;5075525;28;20123;-65
2022/01/24 06:07:21;;;;;;;69.90;22.67;;;4.70;99.90;;;;;;5083739;28;20044;-66
2022/01/24 06:09:47;;;;;;;82.97;24.75;;;4.70;99.90;;;;;;5090753;28;20092;-66
2022/01/24 06:12:12;;;;;;;70.80;24.58;;;4.70;99.90;;;;;;5076810;28;20051;-67
2022/01/24 06:14:38;;;;;;;74.30;23.80;;;4.70;99.90;;;;;;5051791;28;20040;-66
2022/01/24 06:17:03;;;;;;;80.90;25.00;;;4.70;99.90;;;;;;5057079;28;20033;-66
2022/01/24 06:19:29;;;;;;;85.20;26.55;;;4.70;99.90;;;;;;5066057;28;20040;-66
2022/01/24 06:21:54;;;;;;;92.10;26.55;;;4.70;99.90;;;;;;5069311;28;20499;-66
2022/01/24 06:24:20;;;;;;;84.30;24.70;;;4.70;99.90;;;;;;5069342;28;20127;-65
2022/01/24 06:26:46;;;;;;;86.57;25.48;;;4.70;99.90;;;;;;5062385;28;20094;-65
2022/01/24 06:29:11;;;;;;;89.80;26.30;;;4.70;99.90;;;;;;5058182;28;20183;-65
2022/01/24 06:31:37;;;;;;;87.50;26.88;;;4.70;99.90;;;;;;5063746;28;20064;-66
2022/01/24 06:34:03;;;;;;;87.25;26.83;;;4.70;99.90;;;;;;5049938;28;20056;-66
2022/01/24 06:36:29;;;;;;;101.15;28.52;;;4.70;99.90;;;;;;5066391;28;20399;-66
2022/01/24 06:38:54;;;;;;;91.10;28.88;;;4.70;99.90;;;;;;5049664;28;20051;-66
2022/01/24 06:41:33;;;;;;;103.40;28.80;;;4.70;99.90;;;;;;5061330;28;20037;-66
2022/01/24 06:43:59;;;;;;;122.57;32.25;;;4.70;99.90;;;;;;5054231;28;20033;-66
2022/01/24 06:46:24;;;;;;;105.93;30.60;;;4.70;99.90;;;;;;5098081;28;20506;-65
2022/01/24 06:48:50;;;;;;;122.60;33.72;;;4.70;99.90;;;;;;5069375;28;20036;-66
2022/01/24 06:51:18;;;;;;;149.82;38.22;;;4.70;99.90;;;;;;5074949;28;20033;-65
2022/01/24 06:53:43;;;;;;;163.30;40.00;;;4.70;99.90;;;;;;5069464;28;20040;-66
2022/01/24 06:56:09;;;;;;;141.27;39.50;;;4.70;99.90;;;;;;5072150;28;20502;-66
2022/01/24 06:58:36;;;;;;;157.25;39.38;;;4.70;99.90;;;;;;5069450;28;20040;-65
2022/01/24 07:01:02;;;;;;;160.65;41.55;;;4.70;99.90;;;;;;5075343;28;20074;-66
2022/01/24 07:03:28;;;;;;;158.80;40.10;;;4.70;99.90;;;;;;5077489;28;20040;-66
2022/01/24 07:05:54;;;;;;;163.93;42.50;;;4.70;99.90;;;;;;5059812;28;20044;-66
2022/01/24 07:08:19;;;;;;;173.88;44.83;;;4.70;99.90;;;;;;5049806;28;20132;-66
2022/01/24 07:10:45;;;;;;;176.60;45.83;;;4.70;99.90;;;;;;5071897;28;20037;-66
2022/01/24 07:13:11;;;;;;;180.10;46.20;;;4.70;99.90;;;;;;5077296;28;20028;-65
2022/01/24 07:15:45;;;;;;;181.50;47.10;;;4.70;99.90;;;;;;5071055;28;20074;-66
2022/01/24 07:18:57;;;;;;;180.10;47.22;;;4.70;99.90;;;;;;5058628;28;20137;-65
2022/01/24 07:21:05;;;;;;;199.15;50.38;;;4.70;99.90;;;;;;5062721;28;20384;-66
2022/01/24 07:23:31;;;;;;;201.02;52.13;;;4.70;99.90;;;;;;5060857;28;20040;-65
2022/01/24 07:25:57;;;;;;;205.30;54.22;;;4.70;99.90;;;;;;5056051;28;20040;-65
2022/01/24 07:28:22;;;;;;;202.38;55.85;;;4.70;99.90;;;;;;5056861;28;20379;-66
2022/01/24 07:30:48;;;;;;;216.98;55.58;;;4.70;99.90;;;;;;5050433;28;20041;-66
2022/01/24 07:33:14;;;;;;;213.85;57.63;;;4.70;99.90;;;;;;5040375;28;20029;-66
2022/01/24 07:35:41;;;;;;;227.30;60.78;;;4.70;99.90;;;;;;5057829;28;20036;-65
2022/01/24 07:38:07;;;;;;;221.93;61.50;;;4.70;99.90;;;;;;5069935;28;20043;-66
2022/01/24 07:40:40;;;;;;;220.60;65.82;;;4.70;99.90;;;;;;5068319;28;20131;-65
2022/01/24 07:43:13;;;;;;;200.35;61.92;;;4.70;99.90;;;;;;5081250;28;20052;-66
2022/01/24 07:45:40;;;;;;;225.43;66.25;;;4.70;99.90;;;;;;5068920;28;20048;-66
2022/01/24 07:48:06;;;;;;;174.75;51.13;;;4.80;99.90;;;;;;5060923;28;20036;-65
2022/01/24 07:50:35;;;;;;;135.40;42.50;;;4.80;99.90;;;;;;5065183;28;20032;-66
2022/01/24 07:53:01;;;;;;;169.73;49.47;;;4.80;99.90;;;;;;5055061;28;20037;-65
2022/01/24 07:55:27;;;;;;;178.55;54.08;;;4.80;99.90;;;;;;5067051;28;20094;-66
2022/01/24 07:57:53;;;;;;;219.88;64.20;;;4.90;99.90;;;;;;5069203;28;20076;-65
2022/01/24 08:00:19;;;;;;;227.18;66.97;;;4.80;99.90;;;;;;5053569;28;20106;-66
2022/01/24 08:02:45;;;;;;;236.38;70.38;;;4.80;99.90;;;;;;5054831;28;20044;-66
2022/01/24 08:05:11;;;;;;;212.63;63.20;;;4.80;99.90;;;;;;5061580;28;20387;-66
2022/01/24 08:07:37;;;;;;;179.57;53.92;;;4.80;99.90;;;;;;5047366;28;20115;-65
2022/01/24 08:10:04;;;;;;;222.68;66.22;;;4.80;99.90;;;;;;5073226;28;20359;-66
2022/01/24 08:12:31;;;;;;;235.75;67.88;;;4.90;99.90;;;;;;5056611;28;20433;-65
2022/01/24 08:14:59;;;;;;;232.85;66.85;;;4.90;99.90;;;;;;5076386;28;20039;-65
2022/01/24 08:17:25;;;;;;;230.05;61.92;;;4.90;99.90;;;;;;5079957;28;20039;-65
2022/01/24 08:19:50;;;;;;;230.68;63.35;;;4.80;99.90;;;;;;5092270;28;20044;-66
2022/01/24 08:22:16;;;;;;;229.77;65.20;;;4.90;99.90;;;;;;5066175;28;20410;-65
2022/01/24 08:24:42;;;;;;;236.90;64.28;;;4.80;99.90;;;;;;5079957;28;20044;-66
2022/01/24 08:27:07;;;;;;;213.75;61.17;;;4.90;99.90;;;;;;5066901;28;20032;-65
2022/01/24 08:29:33;;;;;;;224.65;62.50;;;4.90;99.90;;;;;;5092271;28;20601;-65
2022/01/24 08:31:58;;;;;;;233.77;63.65;;;4.90;99.90;;;;;;5080378;28;20080;-66
2022/01/24 08:34:24;;;;;;;233.00;62.75;;;4.90;99.90;;;;;;5071948;28;20041;-66
2022/01/24 08:36:49;;;;;;;226.70;62.67;;;4.90;99.90;;;;;;5072962;28;20053;-65
2022/01/24 08:39:15;;;;;;;230.77;63.08;;;4.90;99.90;;;;;;5076592;28;20479;-65
2022/01/24 08:44:32;;;;;;;223.48;60.13;;;4.90;99.90;;;;;;5072296;28;20049;-65
2022/01/24 08:46:58;;;;;;;232.50;60.97;;;4.90;99.90;;;;;;5070991;28;20406;-66
2022/01/24 08:49:24;;;;;;;238.02;63.10;;;4.90;99.90;;;;;;5081483;28;20051;-65
2022/01/24 08:51:49;;;;;;;229.93;62.95;;;5.00;99.90;;;;;;5071820;28;20037;-65
2022/01/24 08:54:15;;;;;;;236.82;64.88;;;5.00;99.90;;;;;;5075363;28;20028;-65
2022/01/24 08:56:41;;;;;;;242.57;64.93;;;5.00;99.90;;;;;;5072604;28;20078;-65
2022/01/24 08:59:07;;;;;;;252.85;64.75;;;5.00;99.90;;;;;;5065512;28;20040;-65
2022/01/24 09:01:34;;;;;;;244.68;64.35;;;5.00;99.90;;;;;;5066347;28;20051;-66
2022/01/24 09:04:00;;;;;;;241.23;66.15;;;5.00;99.90;;;;;;5054727;28;20394;-65
2022/01/24 09:06:28;;;;;;;237.30;64.35;;;5.00;99.90;;;;;;5070973;28;20086;-65
2022/01/24 09:08:58;;;;;;;239.25;64.28;;;5.00;99.90;;;;;;5057306;28;20045;-65
2022/01/24 09:11:28;;;;;;;247.68;64.43;;;5.10;99.90;;;;;;5051493;28;20225;-65
2022/01/24 09:13:54;;;;;;;238.50;62.92;;;5.10;99.90;;;;;;5055307;28;20045;-65
2022/01/24 09:16:19;;;;;;;239.23;62.47;;;5.10;99.90;;;;;;5086230;28;20132;-65
2022/01/24 09:18:45;;;;;;;235.18;64.63;;;5.10;99.90;;;;;;5055945;28;20127;-65
2022/01/24 09:21:11;;;;;;;241.88;64.95;;;5.10;99.90;;;;;;5062744;28;20086;-66
2022/01/24 09:23:36;;;;;;;234.38;63.83;;;5.10;99.90;;;;;;5067051;28;20444;-65
2022/01/24 09:26:03;;;;;;;256.20;67.93;;;5.10;99.90;;;;;;5042805;28;20029;-65
2022/01/24 09:28:28;;;;;;;240.77;65.38;;;5.10;99.90;;;;;;5062109;28;20122;-65
2022/01/24 09:30:54;;;;;;;251.30;66.05;;;5.10;99.90;;;;;;5055046;28;20136;-65
2022/01/24 09:33:20;;;;;;;237.32;65.82;;;5.10;99.90;;;;;;5061033;28;20091;-65
2022/01/24 09:35:45;;;;;;;242.88;61.50;;;5.10;99.90;;;;;;5052494;28;20068;-65
2022/01/24 09:38:12;;;;;;;243.63;63.50;;;5.10;99.90;;;;;;5055986;28;20042;-65
2022/01/24 09:40:38;;;;;;;241.23;62.72;;;5.10;99.90;;;;;;5072490;28;20045;-65
2022/01/24 09:43:05;;;;;;;234.43;64.47;;;5.10;99.90;;;;;;5084978;28;20044;-65
2022/01/24 09:45:30;;;;;;;235.98;65.25;;;5.10;99.90;;;;;;5071428;28;20058;-66
2022/01/24 09:47:58;;;;;;;244.55;66.18;;;5.20;99.90;;;;;;5072217;28;20457;-65
2022/01/24 09:50:24;;;;;;;236.38;65.55;;;5.20;99.90;;;;;;5082456;28;20044;-65
2022/01/24 09:52:50;;;;;;;239.77;65.15;;;5.20;99.90;;;;;;5065577;28;20165;-65
2022/01/24 09:55:18;;;;;;;251.70;66.80;;;5.20;99.90;;;;;;5065967;28;20047;-65
2022/01/24 09:57:47;;;;;;;246.73;67.15;;;5.20;99.90;;;;;;5060899;28;20091;-65
2022/01/24 10:00:15;;;;;;;243.45;64.38;;;5.20;99.90;;;;;;5064594;28;20043;-65
2022/01/24 10:02:43;;;;;;;243.23;64.70;;;5.20;99.90;;;;;;5059032;28;20483;-65
2022/01/24 10:05:24;;;;;;;239.07;65.18;;;5.30;99.90;;;;;;5060899;28;20464;-66
2022/01/24 10:08:02;;;;;;;243.80;63.35;;;5.30;99.90;;;;;;5053669;28;20032;-66
2022/01/24 10:10:32;;;;;;;238.20;64.32;;;5.30;99.90;;;;;;5057517;28;20037;-65
2022/01/24 10:19:07;;;;;;;240.63;63.47;;;5.30;99.90;;;;;;5066298;28;20387;-66
2022/01/24 10:21:58;;;;;;;237.80;63.65;;;5.30;99.90;;;;;;5066494;28;20487;-65
2022/01/24 10:24:26;;;;;;;254.23;64.63;;;5.30;99.90;;;;;;5067598;28;20043;-65
2022/01/24 10:27:27;;;;;;;241.38;65.30;;;5.40;99.90;;;;;;5059925;28;20422;-67
2022/01/24 10:29:57;;;;;;;250.38;63.90;;;5.40;99.90;;;;;;5027249;28;20126;-65
2022/01/24 10:33:02;;;;;;;236.48;63.33;;;5.40;99.90;;;;;;5095377;28;20079;-65
2022/01/24 10:35:40;;;;;;;193.65;53.88;;;5.40;99.90;;;;;;5060947;28;20106;-66
2022/01/24 10:38:40;;;;;;;212.68;56.25;;;5.40;99.90;;;;;;5069078;28;20148;-65
2022/01/24 10:41:21;;;;;;;221.65;59.50;;;5.40;99.90;;;;;;5065761;28;20170;-66
2022/01/24 10:43:48;;;;;;;181.15;52.20;;;5.40;99.90;;;;;;5045436;28;20040;-65
2022/01/24 10:46:20;;;;;;;186.60;52.60;;;5.40;99.90;;;;;;5059551;28;20037;-65
2022/01/24 10:48:49;;;;;;;181.88;51.88;;;5.40;99.90;;;;;;5056079;28;20068;-66
2022/01/24 10:51:17;;;;;;;171.13;49.80;;;5.30;99.90;;;;;;5058527;28;20048;-66
2022/01/24 10:53:49;;;;;;;185.75;52.45;;;5.30;99.90;;;;;;5061039;28;20534;-66
2022/01/24 10:56:35;;;;;;;156.95;48.67;;;5.30;99.90;;;;;;5065015;28;20047;-66
2022/01/24 10:59:15;;;;;;;158.10;47.78;;;5.40;99.90;;;;;;5069932;28;20040;-66
2022/01/24 11:01:43;;;;;;;155.80;47.15;;;5.40;99.90;;;;;;5067814;28;20033;-67
2022/01/24 11:04:13;;;;;;;143.68;44.38;;;5.40;99.90;;;;;;5083239;28;20408;-66
2022/01/24 11:06:45;;;;;;;132.88;43.42;;;5.40;99.90;;;;;;5085690;28;20049;-65
2022/01/24 11:09:26;;;;;;;135.18;45.38;;;5.40;99.90;;;;;;5064334;28;20148;-65
2022/01/24 11:12:22;;;;;;;144.90;46.78;;;5.40;99.90;;;;;;5067332;28;20033;-66
2022/01/24 11:14:50;;;;;;;145.35;45.60;;;5.40;99.90;;;;;;5070971;28;20062;-66
2022/01/24 11:17:20;;;;;;;142.55;47.28;;;5.50;99.90;;;;;;5063800;28;20221;-65
2022/01/24 11:19:51;;;;;;;137.80;45.15;;;5.50;99.90;;;;;;5055587;28;20407;-66
2022/01/24 11:22:21;;;;;;;146.20;46.50;;;5.50;99.90;;;;;;5073455;28;20123;-66
2022/01/24 11:24:58;;;;;;;122.57;42.25;;;5.50;99.90;;;;;;5059474;28;20036;-66
2022/01/24 11:27:25;;;;;;;131.13;43.40;;;5.50;99.90;;;;;;5056283;28;20083;-66
2022/01/24 11:29:54;;;;;;;137.00;45.85;;;5.50;99.90;;;;;;5062378;28;20101;-66
2022/01/24 11:32:26;;;;;;;142.52;46.03;;;5.60;99.90;;;;;;5041089;28;20383;-65
2022/01/24 11:34:53;;;;;;;134.50;44.22;;;5.60;99.90;;;;;;5065428;28;20036;-65
2022/01/24 11:37:43;;;;;;;130.50;43.83;;;5.60;99.90;;;;;;5064976;28;20487;-65
2022/01/24 11:40:23;;;;;;;125.78;43.10;;;5.60;99.90;;;;;;5061065;28;20413;-66
2022/01/24 11:42:50;;;;;;;126.30;44.58;;;5.60;99.90;;;;;;5088324;28;20403;-65
2022/01/24 11:45:18;;;;;;;126.93;45.38;;;5.60;99.90;;;;;;5069593;28;20139;-66
2022/01/24 11:47:46;;;;;;;136.20;46.85;;;5.60;99.90;;;;;;5051794;28;20036;-66
2022/01/24 11:50:24;;;;;;;128.75;45.30;;;5.60;99.90;;;;;;5067806;28;20050;-66
2022/01/24 11:52:51;;;;;;;134.15;47.28;;;5.60;99.90;;;;;;5069827;28;20137;-66
2022/01/24 11:55:30;;;;;;;143.52;47.55;;;5.70;99.90;;;;;;5068120;28;20044;-65
2022/01/24 11:58:03;;;;;;;135.73;47.50;;;5.60;99.90;;;;;;5065675;28;20043;-66
2022/01/24 12:00:36;;;;;;;139.57;48.13;;;5.70;99.90;;;;;;5057381;28;20036;-65
2022/01/24 12:03:26;;;;;;;143.35;48.78;;;5.60;99.90;;;;;;5069445;28;20080;-66
2022/01/24 12:05:53;;;;;;;134.80;47.13;;;5.60;99.90;;;;;;5075440;28;20040;-65
2022/01/24 12:08:34;;;;;;;143.60;48.75;;;5.50;99.90;;;;;;5064276;28;20044;-66
2022/01/24 12:11:16;;;;;;;139.18;46.55;;;5.60;99.90;;;;;;5057486;28;20041;-66
2022/01/24 12:13:47;;;;;;;145.95;50.00;;;5.50;99.90;;;;;;5049245;28;20526;-66
2022/01/24 12:16:15;;;;;;;147.25;51.85;;;5.50;99.90;;;;;;5051321;28;20082;-65
2022/01/24 12:18:40;;;;;;;149.52;51.85;;;5.50;99.90;;;;;;5051347;28;20065;-65
2022/01/24 12:21:10;;;;;;;143.43;49.70;;;5.40;99.90;;;;;;5062178;28;20106;-65
2022/01/24 12:23:39;;;;;;;140.18;49.08;;;5.40;99.90;;;;;;5087248;28;20482;-65
2022/01/24 12:26:19;;;;;;;132.15;47.15;;;5.40;99.90;;;;;;5093473;28;20052;-65
2022/01/24 12:28:49;;;;;;;140.63;47.45;;;5.40;99.90;;;;;;5088778;28;20044;-65
2022/01/24 12:31:25;;;;;;;149.48;49.55;;;5.40;99.90;;;;;;5062242;28;20090;-66
2022/01/24 12:33:53;;;;;;;128.43;46.47;;;5.40;99.90;;;;;;5064008;28;20430;-65
2022/01/24 12:36:46;;;;;;;130.85;47.35;;;5.30;99.90;;;;;;5055422;28;20451;-66
2022/01/24 12:39:12;;;;;;;;;;;5.30;99.90;;;;;;5099438;28;20522;-66
2022/01/24 12:41:43;;;;;;;131.98;45.85;;;5.30;99.90;;;;;;5081434;28;19916;-66
2022/01/24 12:46:52;;;;;;;123.70;44.13;;;5.30;99.90;;;;;;5076466;28;20565;-67
2022/01/24 12:49:18;;;;;;;132.77;46.92;;;5.30;99.90;;;;;;5067978;28;20090;-66
2022/01/24 12:51:45;;;;;;;123.22;45.42;;;5.20;99.90;;;;;;5053215;28;20032;-66
2022/01/24 12:54:11;;;;;;;116.80;43.33;;;5.20;99.90;;;;;;5073204;28;20067;-66
2022/01/24 12:56:37;;;;;;;128.57;45.55;;;5.20;99.90;;;;;;5068831;28;20477;-66
2022/01/24 12:59:02;;;;;;;135.88;47.47;;;5.30;99.90;;;;;;5067326;28;20033;-66
2022/01/24 13:01:29;;;;;;;142.00;48.15;;;5.30;99.90;;;;;;5071752;28;20040;-66
2022/01/24 13:04:02;;;;;;;141.48;48.25;;;5.40;99.90;;;;;;5072759;28;20048;-66
2022/01/24 13:06:33;;;;;;;136.50;48.53;;;5.40;99.90;;;;;;5067635;28;20047;-66
2022/01/24 13:09:04;;;;;;;138.43;47.55;;;5.40;99.90;;;;;;5072142;28;20040;-66
2022/01/24 13:11:31;;;;;;;133.15;46.40;;;5.40;99.90;;;;;;5106508;28;20052;-66
2022/01/24 13:14:10;;;;;;;140.65;47.72;;;5.50;99.90;;;;;;5071507;28;20049;-66
2022/01/24 13:22:40;;;;;;;140.77;46.70;;;5.50;99.90;;;;;;5068212;28;20062;-66
2022/01/24 13:25:26;;;;;;;146.35;49.00;;;5.50;99.90;;;;;;5075866;28;20047;-66
2022/01/24 13:27:57;;;;;;;127.10;44.50;;;5.50;99.90;;;;;;5071869;28;20038;-66
2022/01/24 13:30:38;;;;;;;136.13;46.78;;;5.50;99.90;;;;;;5070814;28;20132;-66
2022/01/24 13:33:06;;;;;;;123.32;43.42;;;5.50;99.90;;;;;;5061861;28;20032;-66
2022/01/24 13:35:35;;;;;;;141.02;47.55;;;5.50;99.90;;;;;;5061524;28;20090;-67
2022/01/24 13:38:09;;;;;;;131.23;45.67;;;5.50;99.90;;;;;;5077566;28;20406;-66
2022/01/24 13:40:51;;;;;;;128.73;43.33;;;5.50;99.90;;;;;;5054588;28;20123;-65
2022/01/24 13:43:31;;;;;;;129.73;45.05;;;5.40;99.90;;;;;;5055333;28;20529;-66
2022/01/24 13:45:57;;;;;;;124.93;42.67;;;5.40;99.90;;;;;;5053302;28;20045;-67
2022/01/24 13:48:25;;;;;;;121.28;41.78;;;5.30;99.90;;;;;;5067770;28;20049;-66
2022/01/24 13:51:00;;;;;;;125.05;41.55;;;5.20;99.90;;;;;;5056470;28;20090;-66
2022/01/24 13:53:40;;;;;;;128.27;43.17;;;5.30;99.90;;;;;;5057896;28;20032;-66
2022/01/24 13:56:22;;;;;;;126.15;42.58;;;5.30;99.90;;;;;;5063414;28;20035;-65
2022/01/24 13:59:02;;;;;;;124.53;42.25;;;5.30;99.90;;;;;;5050437;28;20048;-66
2022/01/24 14:01:27;;;;;;;132.18;44.20;;;5.30;99.90;;;;;;5084196;28;20037;-66
2022/01/24 14:04:08;;;;;;;141.25;46.03;;;5.40;99.90;;;;;;5041277;28;20086;-66
2022/01/24 14:06:36;;;;;;;150.63;48.33;;;5.40;99.90;;;;;;5095620;28;20094;-66
2022/01/24 14:09:12;;;;;;;131.73;43.63;;;5.40;99.90;;;;;;5068573;28;20040;-65
2022/01/24 14:11:43;;;;;;;138.52;46.17;;;5.40;99.90;;;;;;5069848;28;20399;-66
2022/01/24 14:14:13;;;;;;;144.40;46.47;;;5.40;99.90;;;;;;5058197;28;20033;-66
2022/01/24 14:17:05;;;;;;;129.27;45.45;;;5.40;99.90;;;;;;5056131;28;20613;-66
2022/01/24 14:19:33;;;;;;;140.13;46.47;;;5.30;99.90;;;;;;5049174;28;20101;-66